createdAt,value
2022-10-17T00:00:51.122Z,94.90
2022-10-17T00:03:19.589Z,94.90
2022-10-17T00:05:50.157Z,94.90
2022-10-17T00:08:19.061Z,94.90
2022-10-17T00:10:46.685Z,95.00
2022-10-17T00:13:15.185Z,95.00
2022-10-17T00:15:44.952Z,95.00
2022-10-17T00:18:22.049Z,95.00
2022-10-17T00:20:49.461Z,95.00
2022-10-17T00:23:19.387Z,95.00
2022-10-17T00:25:46.994Z,95.10
2022-10-17T00:28:15.520Z,95.10
2022-10-17T00:30:47.740Z,95.30
2022-10-17T00:33:14.960Z,95.30
2022-10-17T00:35:44.667Z,95.10
2022-10-17T00:38:11.839Z,95.10
2022-10-17T00:40:39.265Z,95.00
2022-10-17T00:43:15.663Z,95.00
2022-10-17T00:45:44.205Z,95.10
2022-10-17T00:48:13.508Z,95.10
2022-10-17T00:50:46.511Z,95.10
2022-10-17T00:53:14.588Z,95.10
2022-10-17T00:55:54.331Z,95.10
2022-10-17T00:58:29.263Z,95.10
2022-10-17T01:01:01.094Z,95.10
2022-10-17T01:03:32.410Z,95.10
2022-10-17T01:06:00.110Z,95.10
2022-10-17T01:08:29.924Z,95.10
2022-10-17T01:11:18.377Z,95.10
2022-10-17T01:13:53.655Z,95.10
2022-10-17T01:16:23.542Z,95.10
2022-10-17T01:19:31.395Z,95.20
2022-10-17T01:22:07.012Z,95.10
2022-10-17T01:25:03.009Z,95.20
2022-10-17T01:27:52.409Z,95.20
2022-10-17T01:30:40.822Z,95.10
2022-10-17T01:33:25.292Z,95.10
2022-10-17T01:36:06.704Z,95.20
2022-10-17T01:38:50.541Z,95.20
2022-10-17T01:41:43.228Z,95.20
2022-10-17T01:44:22.739Z,95.40
2022-10-17T01:46:54.792Z,95.20
2022-10-17T01:49:29.696Z,95.20
2022-10-17T01:52:08.421Z,95.20
2022-10-17T01:55:03.675Z,95.20
2022-10-17T01:58:04.418Z,95.20
2022-10-17T02:00:44.543Z,95.20
2022-10-17T02:03:24.494Z,95.30
2022-10-17T02:05:51.949Z,95.20
2022-10-17T02:08:41.742Z,95.20
2022-10-17T02:11:22.983Z,95.30
2022-10-17T02:14:09.105Z,95.30
2022-10-17T02:16:55.421Z,95.30
2022-10-17T02:19:46.740Z,95.30
2022-10-17T02:22:27.809Z,95.60
2022-10-17T02:25:22.337Z,95.30
2022-10-17T02:35:36.027Z,95.30
2022-10-17T02:38:15.780Z,95.40
2022-10-17T02:40:58.037Z,95.40
2022-10-17T02:44:02.374Z,95.40
2022-10-17T02:46:48.586Z,95.50
2022-10-17T02:49:55.270Z,95.50
2022-10-17T02:52:32.383Z,95.60
2022-10-17T03:06:57.427Z,95.50
2022-10-17T03:12:34.173Z,95.60
2022-10-17T03:15:07.360Z,95.60
2022-10-17T03:17:39.109Z,95.60
2022-10-17T03:20:08.528Z,95.60
2022-10-17T03:22:35.634Z,95.60
2022-10-17T03:25:04.456Z,95.60
2022-10-17T03:27:34.435Z,95.60
2022-10-17T03:30:01.764Z,95.60
2022-10-17T03:32:30.310Z,95.60
2022-10-17T03:34:58.218Z,95.60
2022-10-17T03:37:25.379Z,95.70
2022-10-17T03:39:52.419Z,95.70
2022-10-17T03:42:19.696Z,95.70
2022-10-17T03:44:46.864Z,95.70
2022-10-17T03:47:14.395Z,95.80
2022-10-17T03:49:42.057Z,95.80
2022-10-17T03:52:13.995Z,95.80
2022-10-17T03:54:41.272Z,95.80
2022-10-17T03:57:08.414Z,95.80
2022-10-17T03:59:36.062Z,95.80
2022-10-17T04:02:08.278Z,95.80
2022-10-17T04:04:36.182Z,95.80
2022-10-17T04:07:03.751Z,95.80
2022-10-17T04:09:31.726Z,95.80
2022-10-17T04:12:05.959Z,95.80
2022-10-17T04:14:34.813Z,95.80
2022-10-17T04:17:02.587Z,95.80
2022-10-17T04:19:30.974Z,95.80
2022-10-17T04:21:58.322Z,95.80
2022-10-17T04:24:27.950Z,95.80
2022-10-17T04:27:04.292Z,95.80
2022-10-17T04:29:33.753Z,95.80
2022-10-17T04:32:06.909Z,95.80
2022-10-17T04:34:50.524Z,95.80
2022-10-17T04:37:19.721Z,95.80
2022-10-17T04:39:48.897Z,95.80
2022-10-17T04:42:16.084Z,95.80
2022-10-17T04:44:43.627Z,95.80
2022-10-17T04:47:10.904Z,95.80
2022-10-17T04:49:39.258Z,95.80
2022-10-17T04:52:09.993Z,95.70
2022-10-17T04:54:42.975Z,95.70
2022-10-17T04:57:13.003Z,95.70
2022-10-17T04:59:41.684Z,95.70
2022-10-17T05:02:17.611Z,95.70
2022-10-17T05:04:46.129Z,95.70
2022-10-17T05:07:14.627Z,95.70
2022-10-17T05:09:50.866Z,95.80
2022-10-17T05:12:24.738Z,95.80
2022-10-17T05:14:54.595Z,96.00
2022-10-17T05:17:26.358Z,95.80
2022-10-17T05:19:56.257Z,95.80
2022-10-17T05:22:23.578Z,95.90
2022-10-17T05:24:51.077Z,96.10
2022-10-17T05:27:18.796Z,95.90
2022-10-17T05:29:45.921Z,95.90
2022-10-17T05:32:19.563Z,96.00
2022-10-17T05:34:46.697Z,96.00
2022-10-17T05:37:13.663Z,96.00
2022-10-17T05:39:49.094Z,96.00
2022-10-17T05:42:18.662Z,96.00
2022-10-17T05:44:46.550Z,96.00
2022-10-17T05:47:15.550Z,96.00
2022-10-17T05:49:48.608Z,95.90
2022-10-17T05:52:20.375Z,95.90
2022-10-17T05:55:06.479Z,95.90
2022-10-17T05:57:33.995Z,95.90
2022-10-17T06:00:02.297Z,95.80
2022-10-17T06:02:41.926Z,95.90
2022-10-17T06:05:10.782Z,95.90
2022-10-17T06:07:37.992Z,95.90
2022-10-17T06:10:12.533Z,95.90
2022-10-17T06:12:43.784Z,95.90
2022-10-17T06:15:11.958Z,95.90
2022-10-17T06:17:41.308Z,95.90
2022-10-17T06:20:09.425Z,95.90
2022-10-17T06:22:36.666Z,95.90
2022-10-17T06:25:08.682Z,95.90
2022-10-17T06:27:35.931Z,95.90
2022-10-17T06:30:03.173Z,95.90
2022-10-17T06:32:39.290Z,95.90
2022-10-17T06:35:07.082Z,95.90
2022-10-17T06:37:37.827Z,95.90
2022-10-17T06:40:12.517Z,95.80
2022-10-17T06:42:43.201Z,95.80
2022-10-17T06:45:40.249Z,95.80
2022-10-17T06:48:15.249Z,95.70
2022-10-17T06:50:54.005Z,95.70
2022-10-17T06:53:25.197Z,95.70
2022-10-17T06:56:14.926Z,95.70
2022-10-17T06:59:11.621Z,95.60
2022-10-17T07:01:46.931Z,95.60
2022-10-17T07:04:15.701Z,95.60
2022-10-17T07:06:49.231Z,95.60
2022-10-17T07:09:20.008Z,95.50
2022-10-17T07:11:50.159Z,95.50
2022-10-17T07:14:22.415Z,95.50
2022-10-17T07:16:50.290Z,95.50
2022-10-17T07:19:32.248Z,95.50
2022-10-17T07:21:59.926Z,95.40
2022-10-17T07:24:30.270Z,95.40
2022-10-17T07:27:17.904Z,95.40
2022-10-17T07:29:55.468Z,95.40
2022-10-17T07:32:35.720Z,95.30
2022-10-17T07:35:09.534Z,95.30
2022-10-17T07:37:48.568Z,95.30
2022-10-17T07:40:23.953Z,95.20
2022-10-17T07:42:52.798Z,95.20
2022-10-17T07:45:23.477Z,95.10
2022-10-17T07:47:50.870Z,95.10
2022-10-17T07:50:20.247Z,95.00
2022-10-17T07:52:47.410Z,95.00
2022-10-17T07:55:17.032Z,95.00
2022-10-17T07:57:44.411Z,95.00
2022-10-17T08:00:12.319Z,95.10
2022-10-17T08:02:50.059Z,95.10
2022-10-17T08:05:17.380Z,95.10
2022-10-17T08:07:44.566Z,95.20
2022-10-17T08:10:15.573Z,95.20
2022-10-17T08:12:45.506Z,95.20
2022-10-17T08:15:15.084Z,95.30
2022-10-17T08:17:42.301Z,95.30
2022-10-17T08:20:13.000Z,95.30
2022-10-17T08:22:40.130Z,95.30
2022-10-17T08:25:12.703Z,95.30
2022-10-17T08:27:41.318Z,95.30
2022-10-17T08:30:09.227Z,95.40
2022-10-17T08:32:39.076Z,95.40
2022-10-17T08:35:10.058Z,95.60
2022-10-17T08:37:40.210Z,95.60
2022-10-17T08:40:11.065Z,95.50
2022-10-17T08:43:02.862Z,95.40
2022-10-17T08:45:35.660Z,95.50
2022-10-17T08:48:11.206Z,95.50
2022-10-17T08:50:41.019Z,95.50
2022-10-17T08:53:36.060Z,95.50
2022-10-17T08:56:19.559Z,95.50
2022-10-17T08:58:51.965Z,95.50
2022-10-17T09:01:33.944Z,95.60
2022-10-17T09:04:29.016Z,95.70
2022-10-17T09:07:09.548Z,95.70
2022-10-17T09:10:00.659Z,95.70
2022-10-17T09:12:49.339Z,95.80
2022-10-17T09:15:28.317Z,95.80
2022-10-17T09:18:24.007Z,95.80
2022-10-17T09:21:06.659Z,95.80
2022-10-17T09:23:46.271Z,95.80
2022-10-17T09:26:13.720Z,95.90
2022-10-17T09:28:42.948Z,95.90
2022-10-17T09:31:17.111Z,95.90
2022-10-17T09:33:54.820Z,95.90
2022-10-17T09:36:35.754Z,95.90
2022-10-17T09:39:23.149Z,95.90
2022-10-17T09:41:53.989Z,96.00
2022-10-17T09:44:31.630Z,96.00
2022-10-17T09:47:28.593Z,96.00
2022-10-17T09:49:55.675Z,96.10
2022-10-17T09:52:34.166Z,96.10
2022-10-17T09:55:19.464Z,96.10
2022-10-17T09:57:56.785Z,96.10
2022-10-17T10:00:28.133Z,96.10
2022-10-17T10:03:20.866Z,96.10
2022-10-17T10:06:12.574Z,96.10
2022-10-17T10:08:58.822Z,96.10
2022-10-17T10:11:44.288Z,96.20
2022-10-17T10:14:19.754Z,96.20
2022-10-17T10:16:48.354Z,96.20
2022-10-17T10:19:37.781Z,96.20
2022-10-17T10:22:13.684Z,96.20
2022-10-17T10:24:41.110Z,96.10
2022-10-17T10:27:14.189Z,96.10
2022-10-17T10:29:50.972Z,96.20
2022-10-17T10:32:33.185Z,96.20
2022-10-17T10:35:06.776Z,96.30
2022-10-17T10:37:46.114Z,96.30
2022-10-17T10:40:18.860Z,96.30
2022-10-17T10:42:55.070Z,96.30
2022-10-17T10:45:47.922Z,96.30
2022-10-17T10:48:26.737Z,96.30
2022-10-17T10:51:12.745Z,96.30
2022-10-17T10:53:54.827Z,96.30
2022-10-17T10:56:48.696Z,96.30
2022-10-17T10:59:26.121Z,96.30
2022-10-17T11:02:19.612Z,96.20
2022-10-17T11:05:10.413Z,96.20
2022-10-17T11:08:14.298Z,96.20
2022-10-17T11:10:52.939Z,96.20
2022-10-17T11:13:32.817Z,96.20
2022-10-17T11:16:15.658Z,96.30
2022-10-17T11:18:49.178Z,96.40
2022-10-17T11:21:42.494Z,96.40
2022-10-17T11:24:32.800Z,96.40
2022-10-17T11:27:09.414Z,96.40
2022-10-17T11:29:42.331Z,96.40
2022-10-17T11:32:34.623Z,96.40
2022-10-17T11:35:20.781Z,96.40
2022-10-17T11:38:16.921Z,96.50
2022-10-17T11:40:49.266Z,96.50
2022-10-17T11:43:21.596Z,96.80
2022-10-17T11:45:53.293Z,96.50
2022-10-17T11:48:32.196Z,96.50
2022-10-17T11:54:33.107Z,96.40
2022-10-17T11:57:15.014Z,96.40
2022-10-17T12:00:00.246Z,96.40
2022-10-17T12:02:49.915Z,96.40
2022-10-17T12:05:33.397Z,96.40
2022-10-17T12:08:11.034Z,96.40
2022-10-17T12:10:55.443Z,96.50
2022-10-17T12:13:31.969Z,96.60
2022-10-17T12:19:36.843Z,96.70
2022-10-17T12:22:13.449Z,96.70
2022-10-17T12:25:04.468Z,96.70
2022-10-17T12:27:48.764Z,96.80
2022-10-17T12:30:25.893Z,96.70
2022-10-17T12:33:07.430Z,96.80
2022-10-17T12:35:36.872Z,96.80
2022-10-17T12:38:25.286Z,96.80
2022-10-17T12:40:54.705Z,96.70
2022-10-17T12:43:27.801Z,96.70
2022-10-17T12:46:00.025Z,96.80
2022-10-17T12:49:03.191Z,96.80
2022-10-17T12:52:13.020Z,96.80
2022-10-17T12:54:47.944Z,96.90
2022-10-17T12:57:56.750Z,96.90
2022-10-17T13:00:49.836Z,96.90
2022-10-17T13:03:35.066Z,96.90
2022-10-17T13:06:08.157Z,96.90
2022-10-17T13:08:40.320Z,96.90
2022-10-17T13:11:09.170Z,96.90
2022-10-17T13:13:52.117Z,96.90
2022-10-17T13:16:37.206Z,96.80
2022-10-17T13:19:17.594Z,96.80
2022-10-17T13:21:59.724Z,96.80
2022-10-17T13:24:38.237Z,96.80
2022-10-17T13:27:25.039Z,96.90
2022-10-17T13:29:52.426Z,96.90
2022-10-17T13:32:19.448Z,96.90
2022-10-17T13:35:04.577Z,96.90
2022-10-17T13:37:31.906Z,96.90
2022-10-17T13:40:11.458Z,96.90
2022-10-17T13:42:45.658Z,96.90
2022-10-17T13:45:34.223Z,97.00
2022-10-17T13:48:06.107Z,96.90
2022-10-17T13:50:44.517Z,97.00
2022-10-17T13:53:33.842Z,97.00
2022-10-17T13:56:29.628Z,97.00
2022-10-17T13:59:05.184Z,96.90
2022-10-17T14:01:33.152Z,97.00
2022-10-17T14:04:09.436Z,97.00
2022-10-17T14:06:49.660Z,97.10
2022-10-17T14:09:24.051Z,97.10
2022-10-17T14:12:23.911Z,97.20
2022-10-17T14:15:10.789Z,97.30
2022-10-17T14:17:39.677Z,97.40
2022-10-17T14:20:47.916Z,97.40
2022-10-17T14:23:21.526Z,97.40
2022-10-17T14:25:43.940Z,97.50
2022-10-17T14:28:13.011Z,97.50
2022-10-17T14:30:57.735Z,97.60
2022-10-17T14:33:34.602Z,97.70
2022-10-17T14:36:05.613Z,97.70
2022-10-17T14:38:32.980Z,97.70
2022-10-17T14:41:37.793Z,97.70
2022-10-17T14:44:08.890Z,97.80
2022-10-17T14:46:37.473Z,97.80
2022-10-17T14:49:25.221Z,97.80
2022-10-17T14:52:18.553Z,97.70
2022-10-17T14:54:50.191Z,97.70
2022-10-17T14:57:32.172Z,97.70
2022-10-17T15:00:14.117Z,97.70
2022-10-17T15:02:41.475Z,97.70
2022-10-17T15:05:44.969Z,97.70
2022-10-17T15:08:21.958Z,97.70
2022-10-17T15:10:53.662Z,97.70
2022-10-17T15:13:31.097Z,97.80
2022-10-17T15:16:09.661Z,97.70
2022-10-17T15:18:36.722Z,97.80
2022-10-17T15:26:24.763Z,97.80
2022-10-17T15:28:54.398Z,97.80
2022-10-17T15:31:26.316Z,97.80
2022-10-17T15:33:53.910Z,97.80
2022-10-17T15:36:25.543Z,97.80
2022-10-17T15:38:55.830Z,97.80
2022-10-17T15:41:29.805Z,97.80
2022-10-17T15:44:10.374Z,97.80
2022-10-17T15:46:41.309Z,97.80
2022-10-17T15:49:20.743Z,97.80
2022-10-17T15:51:55.204Z,97.80
2022-10-17T15:54:26.384Z,97.80
2022-10-17T15:57:03.502Z,97.80
2022-10-17T15:59:35.132Z,97.80
2022-10-17T16:02:04.650Z,97.90
2022-10-17T16:04:31.812Z,97.90
2022-10-17T16:07:14.639Z,97.90
2022-10-17T16:09:41.907Z,97.90
2022-10-17T16:12:37.133Z,98.20
2022-10-17T16:15:04.707Z,97.90
2022-10-17T16:17:41.601Z,98.00
2022-10-17T16:24:47.139Z,98.10
2022-10-17T16:27:17.164Z,98.20
2022-10-17T16:29:44.507Z,98.20
2022-10-17T16:32:11.608Z,98.20
2022-10-17T16:34:38.822Z,98.30
2022-10-17T16:37:06.519Z,98.30
2022-10-17T16:39:54.521Z,98.30
2022-10-17T16:42:34.813Z,98.30
2022-10-17T16:45:19.785Z,98.30
2022-10-17T16:47:53.562Z,98.40
2022-10-17T16:50:24.728Z,98.40
2022-10-17T16:52:52.119Z,98.40
2022-10-17T16:55:19.449Z,98.40
2022-10-17T16:57:51.133Z,98.40
2022-10-17T17:00:18.312Z,98.40
2022-10-17T17:02:47.923Z,98.40
2022-10-17T17:05:15.358Z,98.40
2022-10-17T17:07:48.544Z,98.30
2022-10-17T17:10:24.911Z,98.30
2022-10-17T17:12:52.019Z,98.30
2022-10-17T17:15:19.113Z,98.30
2022-10-17T17:17:52.433Z,98.20
2022-10-17T17:20:23.192Z,98.20
2022-10-17T17:22:53.113Z,98.20
2022-10-17T17:25:22.867Z,98.20
2022-10-17T17:27:56.025Z,98.30
2022-10-17T17:30:23.292Z,98.30
2022-10-17T17:32:50.308Z,98.40
2022-10-17T17:35:17.482Z,98.30
2022-10-17T17:37:44.380Z,98.40
2022-10-17T17:40:31.258Z,98.40
2022-10-17T17:42:58.801Z,98.40
2022-10-17T17:45:51.771Z,98.40
2022-10-17T17:48:19.714Z,98.40
2022-10-17T17:50:50.004Z,98.50
2022-10-17T17:53:17.895Z,98.50
2022-10-17T17:55:45.444Z,98.50
2022-10-17T17:58:15.239Z,98.50
2022-10-17T18:00:44.337Z,98.50
2022-10-17T18:03:47.648Z,98.50
2022-10-17T18:06:22.163Z,98.50
2022-10-17T18:08:56.296Z,98.50
2022-10-17T18:11:32.666Z,98.60
2022-10-17T18:14:02.582Z,98.60
2022-10-17T18:16:31.935Z,98.60
2022-10-17T18:19:04.153Z,98.60
2022-10-17T18:21:38.744Z,98.60
2022-10-17T18:24:18.325Z,98.60
2022-10-17T18:30:35.466Z,98.60
2022-10-17T18:33:13.021Z,98.70
2022-10-17T18:35:58.100Z,98.70
2022-10-17T18:38:28.733Z,98.60
2022-10-17T18:41:11.231Z,98.70
2022-10-17T18:43:40.132Z,98.60
2022-10-17T18:46:12.399Z,98.60
2022-10-17T18:48:47.120Z,98.70
2022-10-17T18:51:16.345Z,98.70
2022-10-17T18:53:45.105Z,98.60
2022-10-17T18:56:12.690Z,98.60
2022-10-17T18:58:40.731Z,98.60
2022-10-17T19:02:27.203Z,98.60
2022-10-17T19:05:48.101Z,98.60
2022-10-17T19:08:20.664Z,98.50
2022-10-17T19:10:47.628Z,98.80
2022-10-17T19:13:19.229Z,98.60
2022-10-17T19:16:37.189Z,98.60
2022-10-17T19:19:52.885Z,98.60
2022-10-17T19:22:20.241Z,98.60
2022-10-17T19:24:49.875Z,98.60
2022-10-17T19:27:17.015Z,98.50
2022-10-17T19:29:59.985Z,98.60
2022-10-17T19:32:27.300Z,98.50
2022-10-17T19:34:54.460Z,98.60
2022-10-17T19:37:21.604Z,98.60
2022-10-17T19:39:56.759Z,98.70
2022-10-17T19:42:26.441Z,98.70
2022-10-17T19:44:53.882Z,98.70
2022-10-17T19:47:27.122Z,98.70
2022-10-17T19:49:54.231Z,98.70
2022-10-17T19:52:21.572Z,98.60
2022-10-17T19:54:48.692Z,98.60
2022-10-17T19:57:18.876Z,98.60
2022-10-17T19:59:45.939Z,98.60
2022-10-17T20:02:14.084Z,98.60
2022-10-17T20:04:49.713Z,98.60
2022-10-17T20:10:25.363Z,98.60
2022-10-17T20:12:54.808Z,98.70
2022-10-17T20:15:22.350Z,98.70
2022-10-17T20:18:02.649Z,98.70
2022-10-17T20:20:35.860Z,98.70
2022-10-17T20:23:08.828Z,98.70
2022-10-17T20:29:16.890Z,98.70
2022-10-17T20:31:47.525Z,98.80
2022-10-17T20:34:18.041Z,98.80
2022-10-17T20:36:45.109Z,98.70
2022-10-17T20:39:15.023Z,98.80
2022-10-17T20:41:43.261Z,98.80
2022-10-17T20:44:11.474Z,98.80
2022-10-17T20:46:48.434Z,98.80
2022-10-17T20:49:21.716Z,98.80
2022-10-17T20:51:49.148Z,98.80
2022-10-17T20:54:16.157Z,98.80
2022-10-17T20:56:49.603Z,98.80
2022-10-17T20:59:17.796Z,98.70
2022-10-17T21:01:48.453Z,98.80
2022-10-17T21:04:44.182Z,98.70
2022-10-17T21:07:02.965Z,98.70
2022-10-17T21:10:35.938Z,98.70
2022-10-17T21:13:03.125Z,98.60
2022-10-17T21:15:30.168Z,98.70
2022-10-17T21:17:59.979Z,98.70
2022-10-17T21:20:27.137Z,98.70
2022-10-17T21:22:54.199Z,98.60
2022-10-17T21:25:21.525Z,98.60
2022-10-17T21:27:48.453Z,98.60
2022-10-17T21:30:15.496Z,98.60
2022-10-17T21:32:57.539Z,98.60
2022-10-17T21:35:27.922Z,98.60
2022-10-17T21:37:54.889Z,98.60
2022-10-17T21:40:21.811Z,98.60
2022-10-17T21:42:51.145Z,98.60
2022-10-17T21:45:25.379Z,98.60
2022-10-17T21:48:12.070Z,98.60
2022-10-17T21:50:41.207Z,98.70
2022-10-17T21:53:08.507Z,98.60
2022-10-17T21:55:43.217Z,98.60
2022-10-17T21:58:10.681Z,98.60
2022-10-17T22:00:37.877Z,98.60
2022-10-17T22:03:05.904Z,98.60
2022-10-17T22:05:47.876Z,98.60
2022-10-17T22:08:23.789Z,98.60
2022-10-17T22:10:50.926Z,98.70
2022-10-17T22:13:18.139Z,98.70
2022-10-17T22:15:45.562Z,98.70
2022-10-17T22:18:15.997Z,98.80
2022-10-17T22:20:46.701Z,98.70
2022-10-17T22:23:20.275Z,98.70
2022-10-17T22:25:58.026Z,98.70
2022-10-17T22:28:26.706Z,98.70
2022-10-17T22:30:56.284Z,98.80
2022-10-17T22:33:23.522Z,98.80
2022-10-17T22:35:53.860Z,98.90
2022-10-17T22:38:22.284Z,98.90
2022-10-17T22:40:49.463Z,98.90
2022-10-17T22:43:16.920Z,98.90
2022-10-17T22:45:51.214Z,98.90
2022-10-17T22:48:23.325Z,98.90
2022-10-17T22:50:54.441Z,98.90
2022-10-17T22:53:27.923Z,98.90
2022-10-17T22:56:00.157Z,98.90
2022-10-17T22:58:31.562Z,98.90
2022-10-17T23:01:02.089Z,98.90
2022-10-17T23:03:33.060Z,98.90
2022-10-17T23:06:04.886Z,98.90
2022-10-17T23:08:32.456Z,98.90
2022-10-17T23:11:02.233Z,98.90
2022-10-17T23:13:29.416Z,98.90
2022-10-17T23:15:57.584Z,98.80
2022-10-17T23:18:26.429Z,98.90
2022-10-17T23:20:54.169Z,98.90
2022-10-17T23:23:22.024Z,98.80
2022-10-17T23:25:50.555Z,98.90
2022-10-17T23:28:18.205Z,98.80
2022-10-17T23:30:45.664Z,98.80
2022-10-17T23:33:13.880Z,98.80
2022-10-17T23:35:41.673Z,98.80
2022-10-17T23:38:09.360Z,98.70
2022-10-17T23:40:36.766Z,98.70
2022-10-17T23:43:05.099Z,98.70
2022-10-17T23:45:36.034Z,98.70
2022-10-17T23:48:05.189Z,98.70
2022-10-17T23:50:35.395Z,98.70
2022-10-17T23:53:03.557Z,98.70
2022-10-17T23:55:30.923Z,98.70
2022-10-17T23:58:00.942Z,98.70
